Mbs Intl Information

FAA: MBS - ICAO: KMBS

Mbs Intl (Airport) Location

State Michigan
County Saginaw
City Saginaw
Mbs Intl (Airport) is 9 miles northwest of Saginaw, MI.
Latitude 43-31-58.5370N
Longitude 084-04-46.6890W
Elevation 668ft

Mbs Intl METARs

METAR KMBS 190853Z 24006KT 3SM BR OVC003 11/11 A2967 RMK AO2 SLP047 T01110106 56007
Altimeter 29.67"
Temperature 11.1°C (52.0°F)
Wind 240° at 6KT
Clouds overcast at 300ft
Visibility 3.0mi
Time observed: 2022-05-19T08:53:00Z

Mbs Intl (Airport) Details

Status Operational
Activation March 1943
Ownership Public
Usage Public
Chart DETROIT
ATC on-site Yes
Beacon schedule sunset-sunrise
Beacon color clear green

Mbs Intl (Airport) Contacts

Owner MBS INTERNATIONAL
Owner address 8500 GARFIELD RD STE 101, FREELAND, MI 48623-8626
Owner phone 989-695-5555
Manager NORMAN RAUTIOLA
Manager address 5000 NORTH US 131, REED CITY, MI 49677
Manager phone 231-832-5513

Mbs Intl Radio Frequencies

Mbs Intl (Airport) Radio Frequencies

UNICOM 122.95
Common traffic advisory frequency (CTAF) 120.1